CCA1535 ZYHB-ZUTF
Flight info
| Callsign | CCA1535 |
|---|---|
| Flight time | N/A |
| Altitude | 36100 |
| Route | LEGAG W204 RUSBO G212 BUMDU W47 ASAVA W45 VAGBI B215 GODON W43 SAVPA W696 MENED W276 ANRUG W279 ONEBA G212 BUPMI |
| Aircraft | A339/H-SADE1E2E3GHIJ1J3J5M1P2RWXY/LB1 |
Departure
| Time | 2026-04-26 09:58 |
|---|---|
| Airport | Harbin Taiping International Airport (ZYHB) |
Arrival
| Time | N/A |
|---|---|
| Airport | Chengdu Tianfu International Airport (ZUTF) |
| Time | Latitude | Longitude | Altitude | Speed | Heading |
|---|---|---|---|---|---|
| 2026-04-26 09:41 | 45.61522 | 126.23325 | 517 ft | 0 kts | 359° |
| 2026-04-26 09:49 | 45.61511 | 126.23325 | 517 ft | 2 kts | 1° |
| 2026-04-26 09:50 | 45.61496 | 126.23325 | 517 ft | 2 kts | 1° |
| 2026-04-26 09:50 | 45.61481 | 126.23322 | 517 ft | 2 kts | 28° |
| 2026-04-26 09:50 | 45.61469 | 126.23309 | 517 ft | 2 kts | 48° |
| 2026-04-26 09:50 | 45.61460 | 126.23291 | 517 ft | 2 kts | 69° |
| 2026-04-26 09:51 | 45.61457 | 126.23270 | 517 ft | 2 kts | 90° |
| 2026-04-26 09:51 | 45.61459 | 126.23249 | 517 ft | 2 kts | 111° |
| 2026-04-26 09:51 | 45.61464 | 126.23235 | 517 ft | 0 kts | 127° |
| 2026-04-26 09:51 | 45.61467 | 126.23229 | 517 ft | 0 kts | 128° |
| 2026-04-26 09:54 | 45.61463 | 126.23237 | 517 ft | 2 kts | 127° |
| 2026-04-26 09:54 | 45.61447 | 126.23265 | 517 ft | 4 kts | 128° |
| 2026-04-26 09:54 | 45.61421 | 126.23312 | 517 ft | 7 kts | 129° |
| 2026-04-26 09:55 | 45.61385 | 126.23376 | 517 ft | 9 kts | 129° |
| 2026-04-26 09:55 | 45.61346 | 126.23443 | 517 ft | 7 kts | 129° |
| 2026-04-26 09:55 | 45.61303 | 126.23496 | 517 ft | 9 kts | 142° |
| 2026-04-26 09:55 | 45.61270 | 126.23541 | 517 ft | 6 kts | 126° |
| 2026-04-26 09:56 | 45.61253 | 126.23590 | 517 ft | 5 kts | 103° |
| 2026-04-26 09:56 | 45.61255 | 126.23656 | 517 ft | 7 kts | 83° |
| 2026-04-26 09:56 | 45.61269 | 126.23735 | 517 ft | 6 kts | 66° |
| 2026-04-26 09:56 | 45.61298 | 126.23795 | 517 ft | 7 kts | 45° |
| 2026-04-26 09:57 | 45.61349 | 126.23855 | 517 ft | 17 kts | 39° |
| 2026-04-26 09:57 | 45.61626 | 126.24178 | 517 ft | 83 kts | 39° |
| 2026-04-26 09:57 | 45.62230 | 126.24886 | 517 ft | 139 kts | 39° |
| 2026-04-26 09:57 | 45.63084 | 126.25893 | 702 ft | 168 kts | 36° |
| 2026-04-26 09:58 | 45.63966 | 126.26901 | 1374 ft | 158 kts | 24° |
| 2026-04-26 09:58 | 45.64965 | 126.27168 | 2094 ft | 144 kts | 351° |
| 2026-04-26 09:58 | 45.65910 | 126.26817 | 2676 ft | 138 kts | 336° |
| 2026-04-26 09:58 | 45.66771 | 126.26180 | 3110 ft | 139 kts | 331° |
| 2026-04-26 09:59 | 45.67617 | 126.25505 | 3524 ft | 142 kts | 331° |
| 2026-04-26 09:59 | 45.68508 | 126.24812 | 3873 ft | 150 kts | 332° |
| 2026-04-26 09:59 | 45.69471 | 126.24081 | 4156 ft | 165 kts | 332° |
| 2026-04-26 09:59 | 45.70540 | 126.23283 | 4459 ft | 180 kts | 332° |
| 2026-04-26 10:00 | 45.71702 | 126.22424 | 4756 ft | 197 kts | 332° |
| 2026-04-26 10:00 | 45.72959 | 126.21497 | 5078 ft | 214 kts | 332° |
| 2026-04-26 10:00 | 45.74315 | 126.20402 | 5462 ft | 230 kts | 321° |
| 2026-04-26 10:00 | 45.75334 | 126.18625 | 6058 ft | 240 kts | 298° |
| 2026-04-26 10:01 | 45.75943 | 126.16330 | 6487 ft | 256 kts | 290° |
| 2026-04-26 10:01 | 45.76503 | 126.13854 | 7169 ft | 262 kts | 289° |
| 2026-04-26 10:01 | 45.77063 | 126.11368 | 7991 ft | 263 kts | 290° |
| 2026-04-26 10:01 | 45.77625 | 126.08897 | 8773 ft | 264 kts | 289° |
| 2026-04-26 10:02 | 45.78193 | 126.06422 | 9543 ft | 266 kts | 289° |
| 2026-04-26 10:02 | 45.78679 | 126.03874 | 10324 ft | 268 kts | 279° |
| 2026-04-26 10:02 | 45.78734 | 126.01196 | 11009 ft | 276 kts | 267° |
| 2026-04-26 10:02 | 45.78423 | 125.98379 | 11360 ft | 294 kts | 262° |
| 2026-04-26 10:03 | 45.78024 | 125.95418 | 11708 ft | 310 kts | 262° |
| 2026-04-26 10:03 | 45.77600 | 125.92344 | 12330 ft | 317 kts | 262° |
| 2026-04-26 10:03 | 45.77176 | 125.89251 | 13078 ft | 320 kts | 262° |
| 2026-04-26 10:03 | 45.76749 | 125.86108 | 13814 ft | 323 kts | 262° |
| 2026-04-26 10:04 | 45.76325 | 125.82963 | 14516 ft | 327 kts | 262° |
| 2026-04-26 10:04 | 45.75892 | 125.79723 | 15239 ft | 330 kts | 262° |
| 2026-04-26 10:04 | 45.75460 | 125.76502 | 15951 ft | 333 kts | 262° |
| 2026-04-26 10:04 | 45.75022 | 125.73239 | 16636 ft | 337 kts | 262° |
| 2026-04-26 10:05 | 45.74578 | 125.69939 | 17319 ft | 340 kts | 262° |
| 2026-04-26 10:05 | 45.74131 | 125.66630 | 17989 ft | 344 kts | 262° |
| 2026-04-26 10:05 | 45.73674 | 125.63252 | 18662 ft | 347 kts | 262° |
| 2026-04-26 10:05 | 45.73113 | 125.59883 | 19292 ft | 354 kts | 251° |
| 2026-04-26 10:06 | 45.71773 | 125.56856 | 19905 ft | 367 kts | 230° |
| 2026-04-26 10:06 | 45.69713 | 125.54675 | 20529 ft | 379 kts | 210° |
| 2026-04-26 10:06 | 45.67198 | 125.53434 | 21132 ft | 386 kts | 201° |
| 2026-04-26 10:06 | 45.64635 | 125.52335 | 21716 ft | 390 kts | 201° |
| 2026-04-26 10:07 | 45.62000 | 125.51193 | 22273 ft | 393 kts | 201° |
| 2026-04-26 10:07 | 45.59393 | 125.50052 | 22835 ft | 396 kts | 202° |
| 2026-04-26 10:07 | 45.56746 | 125.48885 | 23381 ft | 400 kts | 202° |
| 2026-04-26 10:07 | 45.54082 | 125.47710 | 23881 ft | 403 kts | 202° |
| 2026-04-26 10:08 | 45.51416 | 125.46533 | 24390 ft | 406 kts | 202° |
| 2026-04-26 10:08 | 45.48710 | 125.45338 | 24900 ft | 408 kts | 203° |
| 2026-04-26 10:08 | 45.45963 | 125.44123 | 25440 ft | 410 kts | 203° |
| 2026-04-26 10:08 | 45.43273 | 125.42935 | 25946 ft | 412 kts | 203° |
| 2026-04-26 10:09 | 45.40524 | 125.41724 | 26424 ft | 414 kts | 203° |
| 2026-04-26 10:09 | 45.37738 | 125.40498 | 26897 ft | 415 kts | 203° |
| 2026-04-26 10:09 | 45.35002 | 125.39296 | 27357 ft | 417 kts | 203° |
| 2026-04-26 10:09 | 45.32218 | 125.38072 | 27819 ft | 418 kts | 203° |
| 2026-04-26 10:10 | 45.29445 | 125.36855 | 28266 ft | 419 kts | 203° |
| 2026-04-26 10:10 | 45.26649 | 125.35630 | 28690 ft | 421 kts | 203° |
| 2026-04-26 10:10 | 45.23861 | 125.34409 | 29091 ft | 423 kts | 202° |
| 2026-04-26 10:10 | 45.21029 | 125.33170 | 29485 ft | 425 kts | 202° |
| 2026-04-26 10:11 | 45.18191 | 125.31930 | 29893 ft | 427 kts | 202° |
| 2026-04-26 10:11 | 45.15377 | 125.30701 | 30305 ft | 428 kts | 202° |
| 2026-04-26 10:11 | 45.12505 | 125.29449 | 30694 ft | 430 kts | 203° |
| 2026-04-26 10:11 | 45.09696 | 125.27986 | 31058 ft | 427 kts | 208° |
| 2026-04-26 10:12 | 45.07065 | 125.26146 | 31406 ft | 424 kts | 214° |
| 2026-04-26 10:12 | 45.04589 | 125.23933 | 31723 ft | 422 kts | 220° |
| 2026-04-26 10:12 | 45.02274 | 125.21349 | 31985 ft | 421 kts | 226° |
| 2026-04-26 10:12 | 45.00194 | 125.18489 | 32041 ft | 419 kts | 231° |
| 2026-04-26 10:13 | 44.96669 | 125.12058 | 32050 ft | 414 kts | 238° |
| 2026-04-26 10:13 | 44.93357 | 125.05384 | 32059 ft | 414 kts | 238° |
| 2026-04-26 10:14 | 44.90049 | 124.98734 | 32054 ft | 414 kts | 238° |
| 2026-04-26 10:14 | 44.86749 | 124.92133 | 32065 ft | 416 kts | 238° |
| 2026-04-26 10:15 | 44.85069 | 124.88784 | 32293 ft | 419 kts | 238° |
| 2026-04-26 10:15 | 44.83388 | 124.85438 | 32608 ft | 419 kts | 238° |
| 2026-04-26 10:15 | 44.81691 | 124.82065 | 32855 ft | 420 kts | 238° |
| 2026-04-26 10:15 | 44.80014 | 124.78738 | 33061 ft | 423 kts | 238° |
| 2026-04-26 10:16 | 44.78305 | 124.75348 | 33302 ft | 424 kts | 238° |
| 2026-04-26 10:16 | 44.76597 | 124.71966 | 33589 ft | 423 kts | 238° |
| 2026-04-26 10:16 | 44.74900 | 124.68607 | 33879 ft | 422 kts | 238° |
| 2026-04-26 10:16 | 44.73199 | 124.65246 | 34144 ft | 423 kts | 239° |
| 2026-04-26 10:17 | 44.71508 | 124.61906 | 34380 ft | 423 kts | 239° |
| 2026-04-26 10:17 | 44.69801 | 124.58538 | 34597 ft | 424 kts | 238° |
| 2026-04-26 10:17 | 44.68100 | 124.55187 | 34788 ft | 425 kts | 238° |
| 2026-04-26 10:17 | 44.66378 | 124.51799 | 34996 ft | 426 kts | 238° |
| 2026-04-26 10:18 | 44.64638 | 124.48381 | 35195 ft | 428 kts | 238° |
| 2026-04-26 10:18 | 44.62948 | 124.44968 | 35387 ft | 428 kts | 241° |
| 2026-04-26 10:18 | 44.61432 | 124.41418 | 35581 ft | 427 kts | 245° |
| 2026-04-26 10:18 | 44.60090 | 124.37675 | 35779 ft | 426 kts | 249° |
| 2026-04-26 10:19 | 44.58972 | 124.33887 | 35957 ft | 425 kts | 252° |
| 2026-04-26 10:19 | 44.58045 | 124.29956 | 36039 ft | 426 kts | 256° |
| 2026-04-26 10:19 | 44.56671 | 124.21878 | 36054 ft | 425 kts | 259° |
| 2026-04-26 10:20 | 44.55049 | 124.13905 | 36055 ft | 427 kts | 252° |
| 2026-04-26 10:20 | 44.52594 | 124.06348 | 36056 ft | 430 kts | 244° |
| 2026-04-26 10:21 | 44.49328 | 123.99301 | 36057 ft | 434 kts | 238° |
| 2026-04-26 10:21 | 44.45869 | 123.92445 | 36056 ft | 434 kts | 239° |
| 2026-04-26 10:22 | 44.42363 | 123.85577 | 36058 ft | 433 kts | 238° |
| 2026-04-26 10:22 | 44.38855 | 123.78771 | 36059 ft | 433 kts | 238° |
| 2026-04-26 10:23 | 44.35322 | 123.71938 | 36058 ft | 433 kts | 238° |
| 2026-04-26 10:23 | 44.31800 | 123.65131 | 36059 ft | 433 kts | 238° |
| 2026-04-26 10:24 | 44.28266 | 123.58323 | 36057 ft | 433 kts | 238° |
| 2026-04-26 10:24 | 44.24738 | 123.51537 | 36055 ft | 433 kts | 239° |
| 2026-04-26 10:25 | 44.21215 | 123.44780 | 36056 ft | 433 kts | 239° |
| 2026-04-26 10:25 | 44.17658 | 123.37973 | 36056 ft | 433 kts | 239° |
| 2026-04-26 10:26 | 44.14114 | 123.31207 | 36058 ft | 433 kts | 238° |
| 2026-04-26 10:26 | 44.10583 | 123.24479 | 36056 ft | 432 kts | 238° |
| 2026-04-26 10:27 | 44.07026 | 123.17719 | 36056 ft | 432 kts | 238° |
| 2026-04-26 10:27 | 44.03476 | 123.10989 | 36059 ft | 432 kts | 239° |
| 2026-04-26 10:28 | 43.99932 | 123.04278 | 36060 ft | 432 kts | 238° |
| 2026-04-26 10:28 | 43.96367 | 122.97550 | 36061 ft | 431 kts | 239° |
| 2026-04-26 10:29 | 43.92814 | 122.90827 | 36071 ft | 431 kts | 239° |
| 2026-04-26 10:29 | 43.89364 | 122.84083 | 36063 ft | 431 kts | 240° |
| 2026-04-26 10:30 | 43.85899 | 122.77311 | 36070 ft | 429 kts | 240° |
| 2026-04-26 10:30 | 43.82447 | 122.70592 | 36069 ft | 429 kts | 240° |
| 2026-04-26 10:31 | 43.78984 | 122.63876 | 36072 ft | 429 kts | 239° |
| 2026-04-26 10:31 | 43.75519 | 122.57169 | 36067 ft | 429 kts | 239° |
| 2026-04-26 10:32 | 43.72045 | 122.50463 | 36076 ft | 428 kts | 239° |
| 2026-04-26 10:32 | 43.68584 | 122.43799 | 36073 ft | 427 kts | 239° |
| 2026-04-26 10:33 | 43.65133 | 122.37168 | 36076 ft | 428 kts | 239° |
| 2026-04-26 10:33 | 43.61660 | 122.30509 | 36080 ft | 428 kts | 239° |
| 2026-04-26 10:34 | 43.58187 | 122.23868 | 36069 ft | 427 kts | 239° |
| 2026-04-26 10:34 | 43.54703 | 122.17194 | 36083 ft | 427 kts | 239° |
| 2026-04-26 10:35 | 43.51274 | 122.10558 | 36076 ft | 427 kts | 239° |
| 2026-04-26 10:35 | 43.47827 | 122.03897 | 36074 ft | 426 kts | 239° |
| 2026-04-26 10:36 | 43.44374 | 121.97243 | 36075 ft | 426 kts | 239° |
| 2026-04-26 10:36 | 43.40927 | 121.90614 | 36072 ft | 427 kts | 239° |
| 2026-04-26 10:37 | 43.37469 | 121.83981 | 36072 ft | 427 kts | 239° |
| 2026-04-26 10:37 | 43.34031 | 121.77403 | 36071 ft | 427 kts | 239° |
| 2026-04-26 10:38 | 43.30560 | 121.70777 | 36068 ft | 426 kts | 239° |
| 2026-04-26 10:38 | 43.27115 | 121.64213 | 36071 ft | 427 kts | 239° |
| 2026-04-26 10:39 | 43.23635 | 121.57600 | 36070 ft | 427 kts | 240° |
| 2026-04-26 10:39 | 43.20161 | 121.51009 | 36070 ft | 426 kts | 240° |
| 2026-04-26 10:40 | 43.16681 | 121.44428 | 36075 ft | 427 kts | 240° |
| 2026-04-26 10:40 | 43.13210 | 121.37872 | 36072 ft | 427 kts | 240° |
| 2026-04-26 10:41 | 43.09718 | 121.31294 | 36074 ft | 427 kts | 239° |
| 2026-04-26 10:41 | 43.06245 | 121.24767 | 36071 ft | 427 kts | 239° |
| 2026-04-26 10:42 | 43.02755 | 121.18220 | 36070 ft | 426 kts | 239° |
| 2026-04-26 10:42 | 42.99265 | 121.11689 | 36068 ft | 426 kts | 239° |
| 2026-04-26 10:43 | 42.95756 | 121.05134 | 36067 ft | 426 kts | 239° |
| 2026-04-26 10:43 | 42.92231 | 120.98567 | 36064 ft | 427 kts | 239° |
| 2026-04-26 10:44 | 42.88744 | 120.92088 | 36059 ft | 426 kts | 239° |
| 2026-04-26 10:44 | 42.85244 | 120.85591 | 36063 ft | 425 kts | 239° |
| 2026-04-26 10:45 | 42.81730 | 120.79089 | 36065 ft | 426 kts | 239° |
| 2026-04-26 10:45 | 42.78229 | 120.72621 | 36062 ft | 425 kts | 239° |
| 2026-04-26 10:46 | 42.74736 | 120.66180 | 36060 ft | 425 kts | 239° |
| 2026-04-26 10:46 | 42.71209 | 120.59695 | 36065 ft | 425 kts | 239° |
| 2026-04-26 10:47 | 42.67703 | 120.53265 | 36063 ft | 425 kts | 239° |
| 2026-04-26 10:47 | 42.64172 | 120.46800 | 36068 ft | 425 kts | 239° |
| 2026-04-26 10:48 | 42.60647 | 120.40356 | 36068 ft | 424 kts | 239° |
| 2026-04-26 10:48 | 42.57142 | 120.33969 | 36068 ft | 423 kts | 239° |
| 2026-04-26 10:49 | 42.53630 | 120.27577 | 36073 ft | 424 kts | 239° |
| 2026-04-26 10:49 | 42.50108 | 120.21182 | 36065 ft | 425 kts | 239° |
| 2026-04-26 10:50 | 42.46576 | 120.14782 | 36070 ft | 424 kts | 239° |
| 2026-04-26 10:50 | 42.43050 | 120.08411 | 36074 ft | 424 kts | 239° |
| 2026-04-26 10:51 | 42.37726 | 119.98814 | 36071 ft | 424 kts | 239° |
| 2026-04-26 10:52 | 42.34205 | 119.92481 | 36064 ft | 425 kts | 239° |
| 2026-04-26 10:52 | 42.30648 | 119.86098 | 36066 ft | 423 kts | 239° |
| 2026-04-26 10:53 | 42.27115 | 119.79775 | 36066 ft | 423 kts | 239° |
| 2026-04-26 10:53 | 42.23558 | 119.73419 | 36064 ft | 423 kts | 239° |
| 2026-04-26 10:54 | 42.18253 | 119.63963 | 36059 ft | 423 kts | 239° |
| 2026-04-26 10:54 | 42.14688 | 119.57626 | 36061 ft | 424 kts | 239° |
| 2026-04-26 10:55 | 42.11124 | 119.51304 | 36051 ft | 424 kts | 239° |
| 2026-04-26 10:55 | 42.07575 | 119.45026 | 36057 ft | 423 kts | 239° |
| 2026-04-26 10:56 | 42.04000 | 119.38708 | 36054 ft | 424 kts | 239° |
| 2026-04-26 10:56 | 42.00436 | 119.32426 | 36058 ft | 426 kts | 239° |
| 2026-04-26 10:57 | 41.96829 | 119.26080 | 36053 ft | 425 kts | 239° |
| 2026-04-26 10:57 | 41.93239 | 119.19782 | 36041 ft | 427 kts | 239° |
| 2026-04-26 10:58 | 41.89642 | 119.13481 | 36050 ft | 427 kts | 239° |
| 2026-04-26 10:58 | 41.86021 | 119.07150 | 36053 ft | 427 kts | 239° |
| 2026-04-26 10:59 | 41.82397 | 119.00828 | 36043 ft | 428 kts | 239° |
| 2026-04-26 10:59 | 41.78780 | 118.94534 | 36046 ft | 427 kts | 239° |
| 2026-04-26 11:00 | 41.75145 | 118.88222 | 36053 ft | 426 kts | 239° |
| 2026-04-26 11:00 | 41.71532 | 118.81956 | 36049 ft | 425 kts | 239° |
| 2026-04-26 11:01 | 41.67912 | 118.75696 | 36060 ft | 426 kts | 239° |
| 2026-04-26 11:01 | 41.64283 | 118.69434 | 36051 ft | 424 kts | 239° |
| 2026-04-26 11:02 | 41.60684 | 118.63229 | 36060 ft | 425 kts | 239° |
| 2026-04-26 11:02 | 41.57046 | 118.56974 | 36060 ft | 424 kts | 239° |
| 2026-04-26 11:03 | 41.53443 | 118.50797 | 36049 ft | 424 kts | 239° |
| 2026-04-26 11:03 | 41.49901 | 118.44522 | 36061 ft | 421 kts | 242° |
| 2026-04-26 11:04 | 41.46798 | 118.38003 | 36057 ft | 418 kts | 245° |
| 2026-04-26 11:04 | 41.43755 | 118.31384 | 36058 ft | 419 kts | 245° |
| 2026-04-26 11:05 | 41.40716 | 118.24777 | 36059 ft | 418 kts | 245° |
| 2026-04-26 11:05 | 41.37672 | 118.18173 | 36056 ft | 419 kts | 245° |
| 2026-04-26 11:06 | 41.34640 | 118.11604 | 36052 ft | 418 kts | 244° |
| 2026-04-26 11:06 | 41.31585 | 118.05000 | 35841 ft | 419 kts | 244° |
| 2026-04-26 11:07 | 41.30054 | 118.01693 | 36118 ft | 418 kts | 245° |
| 2026-04-26 11:07 | 41.28537 | 117.98428 | 36166 ft | 418 kts | 245° |
| 2026-04-26 11:07 | 41.25484 | 117.91856 | 35811 ft | 418 kts | 245° |
| 2026-04-26 11:08 | 41.23953 | 117.88557 | 35914 ft | 420 kts | 244° |
| 2026-04-26 11:08 | 41.22419 | 117.85266 | 35977 ft | 420 kts | 244° |
| 2026-04-26 11:08 | 41.19339 | 117.78670 | 35938 ft | 420 kts | 245° |
| 2026-04-26 11:09 | 41.16267 | 117.72098 | 35996 ft | 421 kts | 245° |
| 2026-04-26 11:09 | 41.13176 | 117.65498 | 36051 ft | 424 kts | 244° |
| 2026-04-26 11:10 | 41.11608 | 117.62160 | 36308 ft | 424 kts | 244° |
| 2026-04-26 11:10 | 41.10048 | 117.58845 | 36672 ft | 422 kts | 244° |
| 2026-04-26 11:10 | 41.08479 | 117.55544 | 36973 ft | 423 kts | 243° |
| 2026-04-26 11:10 | 41.06719 | 117.52383 | 37224 ft | 428 kts | 237° |
| 2026-04-26 11:11 | 41.04721 | 117.49415 | 37452 ft | 433 kts | 232° |
| 2026-04-26 11:11 | 41.02506 | 117.46685 | 37717 ft | 438 kts | 227° |
| 2026-04-26 11:11 | 41.00113 | 117.44238 | 37943 ft | 444 kts | 223° |
| 2026-04-26 11:11 | 40.97448 | 117.42001 | 38007 ft | 451 kts | 217° |
| 2026-04-26 11:12 | 40.91704 | 117.38544 | 38028 ft | 459 kts | 209° |
| 2026-04-26 11:12 | 40.85729 | 117.35495 | 38023 ft | 460 kts | 209° |
| 2026-04-26 11:13 | 40.79765 | 117.32375 | 38018 ft | 457 kts | 213° |
| 2026-04-26 11:13 | 40.74412 | 117.28102 | 38020 ft | 444 kts | 225° |
| 2026-04-26 11:14 | 40.70037 | 117.22599 | 38011 ft | 431 kts | 237° |
| 2026-04-26 11:14 | 40.66705 | 117.16160 | 38006 ft | 421 kts | 248° |
| 2026-04-26 11:15 | 40.64020 | 117.09356 | 38000 ft | 420 kts | 249° |
| 2026-04-26 11:15 | 40.61349 | 117.02523 | 37999 ft | 421 kts | 249° |
| 2026-04-26 11:16 | 40.58670 | 116.95676 | 37987 ft | 420 kts | 249° |
| 2026-04-26 11:16 | 40.55991 | 116.88855 | 38004 ft | 420 kts | 249° |
| 2026-04-26 11:17 | 40.53305 | 116.82039 | 38006 ft | 420 kts | 249° |
| 2026-04-26 11:17 | 40.50630 | 116.75259 | 38021 ft | 418 kts | 249° |
| 2026-04-26 11:18 | 40.47951 | 116.68487 | 38023 ft | 418 kts | 249° |
| 2026-04-26 11:18 | 40.45267 | 116.61716 | 38029 ft | 418 kts | 249° |
| 2026-04-26 11:19 | 40.42600 | 116.55001 | 38039 ft | 418 kts | 249° |
| 2026-04-26 11:19 | 40.39917 | 116.48264 | 38031 ft | 417 kts | 249° |
| 2026-04-26 11:20 | 40.37215 | 116.41499 | 38056 ft | 417 kts | 249° |
| 2026-04-26 11:20 | 40.34341 | 116.34894 | 38033 ft | 420 kts | 244° |
| 2026-04-26 11:21 | 40.30946 | 116.28587 | 38011 ft | 425 kts | 238° |
| 2026-04-26 11:21 | 40.27162 | 116.22648 | 38045 ft | 427 kts | 237° |
| 2026-04-26 11:22 | 40.23345 | 116.16740 | 38005 ft | 426 kts | 237° |
| 2026-04-26 11:22 | 40.19501 | 116.10813 | 38019 ft | 427 kts | 237° |
| 2026-04-26 11:23 | 40.15664 | 116.04914 | 38015 ft | 426 kts | 237° |
| 2026-04-26 11:23 | 40.11799 | 115.98985 | 38023 ft | 427 kts | 237° |
| 2026-04-26 11:24 | 40.07980 | 115.93137 | 38016 ft | 425 kts | 237° |
| 2026-04-26 11:24 | 40.04135 | 115.87263 | 38026 ft | 425 kts | 237° |
| 2026-04-26 11:25 | 40.00287 | 115.81400 | 38003 ft | 426 kts | 237° |
| 2026-04-26 11:25 | 39.96439 | 115.75540 | 38002 ft | 425 kts | 237° |
| 2026-04-26 11:26 | 39.92585 | 115.69685 | 38023 ft | 427 kts | 237° |
| 2026-04-26 11:26 | 39.88710 | 115.63808 | 38047 ft | 425 kts | 238° |
| 2026-04-26 11:27 | 39.84855 | 115.57975 | 38055 ft | 425 kts | 238° |
| 2026-04-26 11:27 | 39.80999 | 115.52147 | 38026 ft | 424 kts | 238° |
| 2026-04-26 11:28 | 39.77380 | 115.46169 | 38086 ft | 418 kts | 243° |
| 2026-04-26 11:28 | 39.74274 | 115.39903 | 38054 ft | 412 kts | 248° |
| 2026-04-26 11:29 | 39.71600 | 115.33373 | 38037 ft | 409 kts | 250° |
| 2026-04-26 11:29 | 39.68970 | 115.26761 | 38051 ft | 410 kts | 250° |
| 2026-04-26 11:30 | 39.66366 | 115.20227 | 38087 ft | 410 kts | 250° |
| 2026-04-26 11:30 | 39.63741 | 115.13642 | 38046 ft | 408 kts | 250° |
| 2026-04-26 11:31 | 39.61155 | 115.07156 | 38110 ft | 408 kts | 250° |
| 2026-04-26 11:31 | 39.58543 | 115.00625 | 38056 ft | 407 kts | 250° |
| 2026-04-26 11:32 | 39.55928 | 114.94103 | 38082 ft | 406 kts | 251° |
| 2026-04-26 11:32 | 39.53330 | 114.87630 | 38085 ft | 407 kts | 250° |
| 2026-04-26 11:33 | 39.50722 | 114.81148 | 38110 ft | 407 kts | 251° |
| 2026-04-26 11:33 | 39.48106 | 114.74667 | 38120 ft | 406 kts | 250° |
| 2026-04-26 11:34 | 39.45496 | 114.68215 | 38097 ft | 405 kts | 251° |
| 2026-04-26 11:34 | 39.42886 | 114.61777 | 38118 ft | 406 kts | 251° |
| 2026-04-26 11:35 | 39.40258 | 114.55308 | 38093 ft | 405 kts | 251° |
| 2026-04-26 11:35 | 39.37642 | 114.48880 | 38098 ft | 405 kts | 251° |
| 2026-04-26 11:36 | 39.35016 | 114.42453 | 38088 ft | 405 kts | 251° |
| 2026-04-26 11:36 | 39.32393 | 114.36053 | 38088 ft | 404 kts | 251° |
| 2026-04-26 11:37 | 39.29746 | 114.29597 | 38099 ft | 406 kts | 250° |
| 2026-04-26 11:37 | 39.26947 | 114.23222 | 38086 ft | 413 kts | 244° |
| 2026-04-26 11:38 | 39.23102 | 114.17558 | 38095 ft | 430 kts | 232° |
| 2026-04-26 11:38 | 39.18136 | 114.12991 | 38090 ft | 449 kts | 219° |
| 2026-04-26 11:39 | 39.12231 | 114.09945 | 38105 ft | 467 kts | 206° |
| 2026-04-26 11:39 | 39.05967 | 114.07700 | 38088 ft | 465 kts | 206° |
| 2026-04-26 11:40 | 38.99696 | 114.05491 | 38025 ft | 467 kts | 206° |
| 2026-04-26 11:40 | 38.93455 | 114.03283 | 38008 ft | 467 kts | 206° |
| 2026-04-26 11:42 | 38.68330 | 113.94399 | 38075 ft | 468 kts | 206° |
| 2026-04-26 11:43 | 38.62059 | 113.92188 | 38072 ft | 468 kts | 206° |
| 2026-04-26 11:43 | 38.55789 | 113.89986 | 38055 ft | 469 kts | 206° |
| 2026-04-26 11:44 | 38.49472 | 113.87770 | 38049 ft | 470 kts | 206° |
| 2026-04-26 11:44 | 38.43167 | 113.85516 | 38037 ft | 464 kts | 210° |
| 2026-04-26 11:45 | 38.40263 | 113.83991 | 38037 ft | 453 kts | 218° |
| 2026-04-26 11:45 | 38.37541 | 113.81979 | 38032 ft | 442 kts | 225° |
| 2026-04-26 11:45 | 38.35152 | 113.79633 | 38041 ft | 431 kts | 232° |
| 2026-04-26 11:45 | 38.33050 | 113.76971 | 38042 ft | 421 kts | 239° |
| 2026-04-26 11:46 | 38.29781 | 113.70975 | 38049 ft | 404 kts | 251° |
| 2026-04-26 11:46 | 38.27327 | 113.64585 | 38060 ft | 403 kts | 253° |
| 2026-04-26 11:47 | 38.24898 | 113.58164 | 38063 ft | 403 kts | 253° |
| 2026-04-26 11:47 | 38.22459 | 113.51718 | 38078 ft | 403 kts | 253° |
| 2026-04-26 11:48 | 38.20028 | 113.45322 | 38091 ft | 403 kts | 253° |
| 2026-04-26 11:48 | 38.17595 | 113.38933 | 38091 ft | 402 kts | 253° |
| 2026-04-26 11:49 | 38.15174 | 113.32516 | 38104 ft | 401 kts | 253° |
| 2026-04-26 11:49 | 38.12796 | 113.26116 | 38105 ft | 401 kts | 253° |
| 2026-04-26 11:50 | 38.10407 | 113.19708 | 38114 ft | 402 kts | 253° |
| 2026-04-26 11:50 | 38.08025 | 113.13335 | 38103 ft | 402 kts | 253° |
| 2026-04-26 11:51 | 38.05619 | 113.06908 | 38120 ft | 401 kts | 253° |
| 2026-04-26 11:51 | 38.03221 | 113.00530 | 38114 ft | 402 kts | 253° |
| 2026-04-26 11:52 | 38.00808 | 112.94122 | 38099 ft | 402 kts | 253° |
| 2026-04-26 11:52 | 37.98410 | 112.87766 | 38091 ft | 401 kts | 253° |
| 2026-04-26 11:53 | 37.95995 | 112.81381 | 38088 ft | 402 kts | 253° |
| 2026-04-26 11:54 | 37.92366 | 112.71808 | 38076 ft | 403 kts | 253° |
| 2026-04-26 11:54 | 37.89940 | 112.65422 | 38066 ft | 403 kts | 253° |
| 2026-04-26 11:55 | 37.87495 | 112.59050 | 38055 ft | 404 kts | 252° |
| 2026-04-26 11:55 | 37.84844 | 112.52738 | 38053 ft | 405 kts | 251° |
| 2026-04-26 11:56 | 37.82194 | 112.46460 | 38049 ft | 406 kts | 251° |
| 2026-04-26 11:56 | 37.79535 | 112.40186 | 38062 ft | 405 kts | 251° |
| 2026-04-26 11:57 | 37.76920 | 112.33884 | 38077 ft | 405 kts | 253° |
| 2026-04-26 11:57 | 37.74473 | 112.27463 | 38093 ft | 405 kts | 253° |
| 2026-04-26 11:58 | 37.72036 | 112.21094 | 38106 ft | 405 kts | 253° |
| 2026-04-26 11:58 | 37.69584 | 112.14707 | 38120 ft | 405 kts | 253° |
| 2026-04-26 11:59 | 37.67107 | 112.08263 | 38125 ft | 406 kts | 253° |
| 2026-04-26 11:59 | 37.64647 | 112.01865 | 38129 ft | 405 kts | 252° |
| 2026-04-26 12:00 | 37.62181 | 111.95484 | 38131 ft | 406 kts | 252° |
| 2026-04-26 12:00 | 37.59701 | 111.89069 | 38135 ft | 407 kts | 253° |
| 2026-04-26 12:01 | 37.57217 | 111.82655 | 38134 ft | 406 kts | 253° |
| 2026-04-26 12:01 | 37.54734 | 111.76266 | 38145 ft | 407 kts | 253° |
| 2026-04-26 12:02 | 37.51876 | 111.70036 | 38145 ft | 418 kts | 245° |
| 2026-04-26 12:02 | 37.48035 | 111.64414 | 38277 ft | 432 kts | 234° |
| 2026-04-26 12:03 | 37.43313 | 111.59587 | 38156 ft | 442 kts | 228° |
| 2026-04-26 12:03 | 37.38373 | 111.54989 | 38139 ft | 441 kts | 227° |
| 2026-04-26 12:04 | 37.33411 | 111.50395 | 38134 ft | 442 kts | 227° |
| 2026-04-26 12:04 | 37.28459 | 111.45807 | 38132 ft | 443 kts | 227° |
| 2026-04-26 12:05 | 37.23477 | 111.41200 | 38137 ft | 447 kts | 227° |
| 2026-04-26 12:05 | 37.18493 | 111.36601 | 38148 ft | 445 kts | 227° |
| 2026-04-26 12:06 | 37.13470 | 111.31969 | 38151 ft | 448 kts | 227° |
| 2026-04-26 12:06 | 37.08463 | 111.27362 | 38153 ft | 447 kts | 226° |
| 2026-04-26 12:07 | 37.03450 | 111.22761 | 38161 ft | 446 kts | 226° |
| 2026-04-26 12:07 | 36.98433 | 111.18160 | 38159 ft | 447 kts | 226° |
| 2026-04-26 12:08 | 36.93401 | 111.13551 | 38154 ft | 448 kts | 226° |
| 2026-04-26 12:08 | 36.88377 | 111.08963 | 38143 ft | 444 kts | 226° |
| 2026-04-26 12:09 | 36.83389 | 111.04412 | 38142 ft | 444 kts | 226° |
| 2026-04-26 12:09 | 36.78392 | 110.99860 | 38135 ft | 445 kts | 226° |
| 2026-04-26 12:10 | 36.73394 | 110.95314 | 38128 ft | 444 kts | 226° |
| 2026-04-26 12:10 | 36.68422 | 110.90798 | 38130 ft | 443 kts | 226° |
| 2026-04-26 12:11 | 36.63432 | 110.86276 | 38127 ft | 443 kts | 226° |
| 2026-04-26 12:11 | 36.58492 | 110.81806 | 38118 ft | 440 kts | 226° |
| 2026-04-26 12:12 | 36.53538 | 110.77329 | 38105 ft | 440 kts | 226° |
| 2026-04-26 12:12 | 36.48599 | 110.72875 | 38091 ft | 438 kts | 226° |
| 2026-04-26 12:13 | 36.43632 | 110.68401 | 38079 ft | 438 kts | 226° |
| 2026-04-26 12:13 | 36.38688 | 110.63953 | 38075 ft | 436 kts | 226° |
| 2026-04-26 12:14 | 36.33786 | 110.59554 | 38074 ft | 437 kts | 226° |
| 2026-04-26 12:14 | 36.28848 | 110.55129 | 38063 ft | 435 kts | 226° |
| 2026-04-26 12:15 | 36.23920 | 110.50717 | 38060 ft | 436 kts | 226° |
| 2026-04-26 12:15 | 36.19025 | 110.46343 | 38052 ft | 435 kts | 226° |
| 2026-04-26 12:16 | 36.14110 | 110.41961 | 38057 ft | 436 kts | 226° |
| 2026-04-26 12:16 | 36.09201 | 110.37585 | 38069 ft | 432 kts | 225° |
| 2026-04-26 12:17 | 36.04319 | 110.33247 | 38087 ft | 433 kts | 225° |
| 2026-04-26 12:17 | 35.99438 | 110.28912 | 38100 ft | 433 kts | 224° |
| 2026-04-26 12:18 | 35.94536 | 110.24568 | 38123 ft | 432 kts | 224° |
| 2026-04-26 12:18 | 35.89643 | 110.20239 | 38131 ft | 433 kts | 224° |
| 2026-04-26 12:19 | 35.84758 | 110.15919 | 38123 ft | 433 kts | 224° |
| 2026-04-26 12:19 | 35.79882 | 110.11618 | 38135 ft | 433 kts | 224° |
| 2026-04-26 12:20 | 35.74983 | 110.07299 | 38137 ft | 432 kts | 224° |
| 2026-04-26 12:20 | 35.70092 | 110.02998 | 38139 ft | 432 kts | 224° |
| 2026-04-26 12:21 | 35.65207 | 109.98708 | 38136 ft | 431 kts | 224° |
| 2026-04-26 12:21 | 35.60316 | 109.94421 | 38124 ft | 430 kts | 224° |
| 2026-04-26 12:22 | 35.55436 | 109.90146 | 38120 ft | 432 kts | 224° |
| 2026-04-26 12:22 | 35.50548 | 109.85875 | 38108 ft | 432 kts | 224° |
| 2026-04-26 12:23 | 35.45637 | 109.81589 | 38090 ft | 431 kts | 224° |
| 2026-04-26 12:23 | 35.40781 | 109.77357 | 38063 ft | 431 kts | 224° |
| 2026-04-26 12:24 | 35.35870 | 109.73081 | 38045 ft | 431 kts | 224° |
| 2026-04-26 12:24 | 35.30985 | 109.68833 | 38029 ft | 431 kts | 224° |
| 2026-04-26 12:25 | 35.23671 | 109.62492 | 38004 ft | 430 kts | 224° |
| 2026-04-26 12:25 | 35.18774 | 109.58253 | 38003 ft | 430 kts | 223° |
| 2026-04-26 12:26 | 35.13873 | 109.54017 | 37990 ft | 432 kts | 223° |
| 2026-04-26 12:26 | 35.08980 | 109.49796 | 37982 ft | 430 kts | 223° |
| 2026-04-26 12:27 | 35.04121 | 109.45607 | 37982 ft | 429 kts | 223° |
| 2026-04-26 12:27 | 34.99235 | 109.41401 | 37974 ft | 429 kts | 223° |
| 2026-04-26 12:28 | 34.94343 | 109.37198 | 37973 ft | 429 kts | 223° |
| 2026-04-26 12:28 | 34.89446 | 109.32998 | 37980 ft | 430 kts | 223° |
| 2026-04-26 12:29 | 34.84551 | 109.28803 | 37987 ft | 432 kts | 223° |
| 2026-04-26 12:30 | 34.77176 | 109.22498 | 37953 ft | 430 kts | 222° |
| 2026-04-26 12:30 | 34.72284 | 109.18323 | 37955 ft | 431 kts | 222° |
| 2026-04-26 12:31 | 34.64908 | 109.12038 | 37959 ft | 432 kts | 222° |
| 2026-04-26 12:31 | 34.60008 | 109.07871 | 37953 ft | 431 kts | 222° |
| 2026-04-26 12:32 | 34.55094 | 109.03700 | 37952 ft | 432 kts | 222° |